createdAt,value
2023-05-12T00:01:03.621Z,9.33
2023-05-12T00:03:30.379Z,9.33
2023-05-12T00:05:57.228Z,9.32
2023-05-12T00:08:24.060Z,9.31
2023-05-12T00:10:50.784Z,9.30
2023-05-12T00:13:17.545Z,9.27
2023-05-12T00:15:44.922Z,9.22
2023-05-12T00:18:11.854Z,9.20
2023-05-12T00:20:38.478Z,9.20
2023-05-12T00:23:05.128Z,9.22
2023-05-12T00:25:31.730Z,9.22
2023-05-12T00:27:58.386Z,9.19
2023-05-12T00:30:25.004Z,9.16
2023-05-12T00:32:51.623Z,9.17
2023-05-12T00:35:18.382Z,9.16
2023-05-12T00:37:45.152Z,9.15
2023-05-12T00:40:12.070Z,9.15
2023-05-12T00:42:38.658Z,9.15
2023-05-12T00:45:06.438Z,9.12
2023-05-12T00:47:33.241Z,9.10
2023-05-12T00:49:59.887Z,9.07
2023-05-12T00:52:27.298Z,9.04
2023-05-12T00:54:53.972Z,9.03
2023-05-12T00:57:21.093Z,9.00
2023-05-12T00:59:47.778Z,8.96
2023-05-12T01:02:14.461Z,8.93
2023-05-12T01:04:41.409Z,8.95
2023-05-12T01:07:23.703Z,8.94
2023-05-12T01:09:55.668Z,8.92
2023-05-12T01:12:26.064Z,8.87
2023-05-12T01:14:53.461Z,8.79
2023-05-12T01:17:21.328Z,8.73
2023-05-12T01:19:54.630Z,8.66
2023-05-12T01:22:21.258Z,8.58
2023-05-12T01:24:58.267Z,8.54
2023-05-12T01:27:27.495Z,8.53
2023-05-12T01:30:00.487Z,8.51
2023-05-12T01:32:27.553Z,8.47
2023-05-12T01:34:54.419Z,8.43
2023-05-12T01:37:26.644Z,8.40
2023-05-12T01:39:54.342Z,8.38
2023-05-12T01:42:21.553Z,8.33
2023-05-12T01:44:48.701Z,8.30
2023-05-12T01:47:15.985Z,8.28
2023-05-12T01:49:47.997Z,8.25
2023-05-12T01:52:15.658Z,8.23
2023-05-12T01:54:42.245Z,8.19
2023-05-12T01:57:09.079Z,8.14
2023-05-12T01:59:37.222Z,8.05
2023-05-12T02:02:05.423Z,7.97
2023-05-12T02:04:32.050Z,7.92
2023-05-12T02:06:59.053Z,7.92
2023-05-12T02:09:26.245Z,7.93
2023-05-12T02:11:56.365Z,7.85
2023-05-12T02:14:23.135Z,7.79
2023-05-12T02:16:52.753Z,7.78
2023-05-12T02:19:20.847Z,7.78
2023-05-12T02:21:48.358Z,7.79
2023-05-12T02:24:16.656Z,7.83
2023-05-12T02:26:43.460Z,7.81
2023-05-12T02:29:11.263Z,7.77
2023-05-12T02:31:38.231Z,7.79
2023-05-12T02:34:12.387Z,7.79
2023-05-12T02:36:39.192Z,7.78
2023-05-12T02:39:05.850Z,7.78
2023-05-12T02:41:32.541Z,7.77
2023-05-12T02:43:59.367Z,7.77
2023-05-12T02:46:26.285Z,7.77
2023-05-12T02:48:53.532Z,7.80
2023-05-12T02:51:20.138Z,7.80
2023-05-12T02:53:46.951Z,7.78
2023-05-12T02:56:13.601Z,7.76
2023-05-12T02:58:40.213Z,7.76
2023-05-12T03:01:11.294Z,7.72
2023-05-12T03:03:39.102Z,7.72
2023-05-12T03:06:06.578Z,7.74
2023-05-12T03:08:33.334Z,7.75
2023-05-12T03:11:00.454Z,7.75
2023-05-12T03:13:27.463Z,7.72
2023-05-12T03:15:54.558Z,7.68
2023-05-12T03:18:21.332Z,7.65
2023-05-12T03:20:48.439Z,7.63
2023-05-12T03:23:15.082Z,7.62
2023-05-12T03:25:41.789Z,7.66
2023-05-12T03:28:08.511Z,7.71
2023-05-12T03:30:35.280Z,7.73
2023-05-12T03:33:01.913Z,7.75
2023-05-12T03:35:35.928Z,7.77
2023-05-12T03:38:03.221Z,7.80
2023-05-12T03:40:29.826Z,7.81
2023-05-12T03:42:56.416Z,7.82
2023-05-12T03:45:23.026Z,7.81
2023-05-12T03:47:49.752Z,7.82
2023-05-12T03:50:16.744Z,7.88
2023-05-12T03:52:44.459Z,7.94
2023-05-12T03:55:11.195Z,8.00
2023-05-12T03:57:38.224Z,8.04
2023-05-12T04:00:05.805Z,8.09
2023-05-12T04:02:39.610Z,8.15
2023-05-12T04:05:08.320Z,8.20
2023-05-12T04:07:35.598Z,8.24
2023-05-12T04:10:02.872Z,8.28
2023-05-12T04:12:29.734Z,8.29
2023-05-12T04:14:57.391Z,8.32
2023-05-12T04:17:24.532Z,8.37
2023-05-12T04:19:53.584Z,8.43
2023-05-12T04:22:20.230Z,8.55
2023-05-12T04:24:47.733Z,8.65
2023-05-12T04:27:14.440Z,8.73
2023-05-12T04:29:41.282Z,8.80
2023-05-12T04:32:08.218Z,8.87
2023-05-12T04:34:35.676Z,8.94
2023-05-12T04:37:02.483Z,9.02
2023-05-12T04:39:29.840Z,9.12
2023-05-12T04:41:57.588Z,9.21
2023-05-12T04:44:24.476Z,9.28
2023-05-12T04:47:14.943Z,9.37
2023-05-12T04:50:10.760Z,9.45
2023-05-12T04:52:38.334Z,9.53
2023-05-12T04:55:06.554Z,9.60
2023-05-12T04:57:33.421Z,9.69
2023-05-12T05:00:05.093Z,9.81
2023-05-12T05:02:32.171Z,9.89
2023-05-12T05:04:58.855Z,9.98
2023-05-12T05:07:25.644Z,10.06
2023-05-12T05:09:52.360Z,10.19
2023-05-12T05:12:19.120Z,10.34
2023-05-12T05:14:46.083Z,10.49
2023-05-12T05:17:13.147Z,10.60
2023-05-12T05:19:53.120Z,10.73
2023-05-12T05:22:22.749Z,10.84
2023-05-12T05:24:49.796Z,10.94
2023-05-12T05:27:16.793Z,11.03
2023-05-12T05:29:43.440Z,11.11
2023-05-12T05:32:10.088Z,11.19
2023-05-12T05:34:36.837Z,11.27
2023-05-12T05:37:03.595Z,11.34
2023-05-12T05:39:30.976Z,11.40
2023-05-12T05:41:58.067Z,11.51
2023-05-12T05:44:25.254Z,11.63
2023-05-12T05:46:52.780Z,11.76
2023-05-12T05:49:19.679Z,11.89
2023-05-12T05:51:47.491Z,12.01
2023-05-12T05:54:14.830Z,12.16
2023-05-12T05:56:41.467Z,12.26
2023-05-12T05:59:08.322Z,12.35
2023-05-12T06:01:35.239Z,12.46
2023-05-12T06:04:02.223Z,12.58
2023-05-12T06:06:29.425Z,12.71
2023-05-12T06:08:56.178Z,12.82
2023-05-12T06:11:22.996Z,12.98
2023-05-12T06:13:49.850Z,13.08
2023-05-12T06:16:16.503Z,13.21
2023-05-12T06:18:43.615Z,13.28
2023-05-12T06:21:10.346Z,13.37
2023-05-12T06:23:36.935Z,13.51
2023-05-12T06:26:04.111Z,13.65
2023-05-12T06:28:30.710Z,13.80
2023-05-12T06:30:59.424Z,13.88
2023-05-12T06:33:26.047Z,13.94
2023-05-12T06:35:52.655Z,14.01
2023-05-12T06:38:19.332Z,14.15
2023-05-12T06:40:46.094Z,14.33
2023-05-12T06:43:13.096Z,14.46
2023-05-12T06:45:44.594Z,14.55
2023-05-12T06:48:11.981Z,14.60
2023-05-12T06:50:38.783Z,14.71
2023-05-12T06:53:06.445Z,14.81
2023-05-12T06:55:33.122Z,14.90
2023-05-12T06:57:59.712Z,15.02
2023-05-12T07:00:26.448Z,15.12
2023-05-12T07:02:53.688Z,15.20
2023-05-12T07:05:21.219Z,15.32
2023-05-12T07:07:48.230Z,15.38
2023-05-12T07:10:15.051Z,15.43
2023-05-12T07:12:41.770Z,15.47
2023-05-12T07:15:09.729Z,15.61
2023-05-12T07:17:36.659Z,15.74
2023-05-12T07:20:05.676Z,15.80
2023-05-12T07:22:32.761Z,15.85
2023-05-12T07:24:59.536Z,15.96
2023-05-12T07:27:26.286Z,16.04
2023-05-12T07:29:53.098Z,16.14
2023-05-12T07:32:19.716Z,16.19
2023-05-12T07:34:46.323Z,16.25
2023-05-12T07:37:13.016Z,16.29
2023-05-12T07:39:39.692Z,16.35
2023-05-12T07:42:06.552Z,16.45
2023-05-12T07:44:33.656Z,16.57
2023-05-12T07:47:00.438Z,16.65
2023-05-12T07:49:27.332Z,16.74
2023-05-12T07:51:53.930Z,16.79
2023-05-12T07:54:20.544Z,16.89
2023-05-12T07:56:47.189Z,17.01
2023-05-12T07:59:14.470Z,17.09
2023-05-12T08:01:41.366Z,17.13
2023-05-12T08:04:08.117Z,17.23
2023-05-12T08:06:35.026Z,17.34
2023-05-12T08:09:01.717Z,17.42
2023-05-12T08:11:28.428Z,17.48
2023-05-12T08:13:58.558Z,17.53
2023-05-12T08:16:25.202Z,17.59
2023-05-12T08:18:51.896Z,17.64
2023-05-12T08:21:19.290Z,17.66
2023-05-12T08:23:46.093Z,17.68
2023-05-12T08:26:12.732Z,17.74
2023-05-12T08:28:39.336Z,17.79
2023-05-12T08:31:06.070Z,17.82
2023-05-12T08:33:35.716Z,17.87
2023-05-12T08:36:02.647Z,17.96
2023-05-12T08:38:29.634Z,18.05
2023-05-12T08:41:02.901Z,18.09
2023-05-12T08:43:38.282Z,18.14
2023-05-12T08:46:05.376Z,18.17
2023-05-12T08:48:32.271Z,18.21
2023-05-12T08:50:58.928Z,18.29
2023-05-12T08:53:25.901Z,18.34
2023-05-12T08:57:09.096Z,18.37
2023-05-12T08:58:42.101Z,18.38
2023-05-12T09:01:10.378Z,18.37
2023-05-12T09:03:37.159Z,18.41
2023-05-12T09:06:03.937Z,18.45
2023-05-12T09:08:33.142Z,18.47
2023-05-12T09:10:59.836Z,18.51
2023-05-12T09:14:03.101Z,18.55
2023-05-12T09:16:33.260Z,18.64
2023-05-12T09:19:00.732Z,18.73
2023-05-12T09:21:28.472Z,18.82
2023-05-12T09:23:57.189Z,18.89
2023-05-12T09:26:25.003Z,18.92
2023-05-12T09:28:56.239Z,18.95
2023-05-12T09:31:24.337Z,18.89
2023-05-12T09:33:51.592Z,18.80
2023-05-12T09:36:22.363Z,18.75
2023-05-12T09:39:04.650Z,18.73
2023-05-12T09:41:34.882Z,18.77
2023-05-12T09:44:01.853Z,18.88
2023-05-12T09:46:28.965Z,18.89
2023-05-12T09:48:57.318Z,18.85
2023-05-12T09:51:24.497Z,18.77
2023-05-12T09:53:51.536Z,18.73
2023-05-12T09:56:18.869Z,18.65
2023-05-12T09:58:47.230Z,18.63
2023-05-12T10:01:22.537Z,18.65
2023-05-12T10:03:54.970Z,18.65
2023-05-12T10:06:32.247Z,18.60
2023-05-12T10:09:05.151Z,18.53
2023-05-12T10:11:31.988Z,18.51
2023-05-12T10:13:59.533Z,18.55
2023-05-12T10:16:29.244Z,18.63
2023-05-12T10:18:56.649Z,18.71
2023-05-12T10:21:24.516Z,18.84
2023-05-12T10:23:51.558Z,18.93
2023-05-12T10:26:18.746Z,19.02
2023-05-12T10:28:45.319Z,19.12
2023-05-12T10:31:12.174Z,19.16
2023-05-12T10:33:38.792Z,19.23
2023-05-12T10:36:05.748Z,19.30
2023-05-12T10:38:36.198Z,19.38
2023-05-12T10:41:04.958Z,19.49
2023-05-12T10:43:46.896Z,19.63
2023-05-12T10:46:13.610Z,19.70
2023-05-12T10:49:00.289Z,19.71
2023-05-12T10:51:28.779Z,19.68
2023-05-12T10:54:05.178Z,19.65
2023-05-12T10:56:41.146Z,19.56
2023-05-12T10:59:14.091Z,19.46
2023-05-12T11:01:42.317Z,19.34
2023-05-12T11:04:14.449Z,19.27
2023-05-12T11:06:42.047Z,19.22
2023-05-12T11:09:11.397Z,19.26
2023-05-12T11:11:38.431Z,19.33
2023-05-12T11:14:05.163Z,19.38
2023-05-12T11:16:31.824Z,19.42
2023-05-12T11:19:03.254Z,19.42
2023-05-12T11:21:32.046Z,19.37
2023-05-12T11:24:00.332Z,19.33
2023-05-12T11:26:27.859Z,19.37
2023-05-12T11:28:54.772Z,19.51
2023-05-12T11:31:21.951Z,19.60
2023-05-12T11:33:51.848Z,19.68
2023-05-12T11:36:25.378Z,19.71
2023-05-12T11:38:52.026Z,19.74
2023-05-12T11:41:24.139Z,19.78
2023-05-12T11:43:50.751Z,19.84
2023-05-12T11:46:25.530Z,19.91
2023-05-12T11:48:58.988Z,20.00
2023-05-12T11:51:26.422Z,20.04
2023-05-12T11:53:53.186Z,20.11
2023-05-12T11:56:22.180Z,20.25
2023-05-12T11:58:56.270Z,20.38
2023-05-12T12:01:23.576Z,20.44
2023-05-12T12:03:51.670Z,20.47
2023-05-12T12:06:19.105Z,20.44
2023-05-12T12:08:52.818Z,20.45
2023-05-12T12:11:23.581Z,20.40
2023-05-12T12:13:57.215Z,20.31
2023-05-12T12:16:25.363Z,20.30
2023-05-12T12:18:52.147Z,20.36
2023-05-12T12:21:19.058Z,20.41
2023-05-12T12:23:51.211Z,20.40
2023-05-12T12:26:20.873Z,20.45
2023-05-12T12:28:47.825Z,20.49
2023-05-12T12:31:14.746Z,20.57
2023-05-12T12:33:41.605Z,20.63
2023-05-12T12:36:08.972Z,20.62
2023-05-12T12:38:35.623Z,20.68
2023-05-12T12:41:02.228Z,20.78
2023-05-12T12:43:28.881Z,20.88
2023-05-12T12:45:55.623Z,20.97
2023-05-12T12:48:22.237Z,20.99
2023-05-12T12:50:48.824Z,20.97
2023-05-12T12:53:16.792Z,20.89
2023-05-12T12:55:43.480Z,20.83
2023-05-12T12:58:10.088Z,20.78
2023-05-12T13:00:36.802Z,20.72
2023-05-12T13:03:03.985Z,20.62
2023-05-12T13:05:30.649Z,20.53
2023-05-12T13:07:57.731Z,20.44
2023-05-12T13:10:25.533Z,20.38
2023-05-12T13:12:52.734Z,20.35
2023-05-12T13:15:19.638Z,20.31
2023-05-12T13:17:46.628Z,20.23
2023-05-12T13:20:14.095Z,20.16
2023-05-12T13:22:41.778Z,20.12
2023-05-12T13:25:09.065Z,20.11
2023-05-12T13:27:36.504Z,20.11
2023-05-12T13:30:04.961Z,20.06
2023-05-12T13:32:32.064Z,19.99
2023-05-12T13:34:59.113Z,19.93
2023-05-12T13:37:25.903Z,19.96
2023-05-12T13:39:52.666Z,20.07
2023-05-12T13:42:19.413Z,20.19
2023-05-12T13:44:46.012Z,20.26
2023-05-12T13:47:12.750Z,20.35
2023-05-12T13:49:39.482Z,20.43
2023-05-12T13:52:06.706Z,20.50
2023-05-12T13:54:33.538Z,20.57
2023-05-12T13:57:01.024Z,20.64
2023-05-12T13:59:27.768Z,20.70
2023-05-12T14:01:54.998Z,20.74
2023-05-12T14:04:21.734Z,20.70
2023-05-12T14:06:48.314Z,20.66
2023-05-12T14:09:14.989Z,20.56
2023-05-12T14:11:41.686Z,20.48
2023-05-12T14:14:08.302Z,20.44
2023-05-12T14:16:35.040Z,20.44
2023-05-12T14:19:01.717Z,20.46
2023-05-12T14:21:28.424Z,20.45
2023-05-12T14:23:55.009Z,20.41
2023-05-12T14:26:22.525Z,20.35
2023-05-12T14:28:49.678Z,20.25
2023-05-12T14:31:16.445Z,20.16
2023-05-12T14:33:43.269Z,20.10
2023-05-12T14:36:10.015Z,20.02
2023-05-12T14:38:36.655Z,19.96
2023-05-12T14:41:03.992Z,19.86
2023-05-12T14:43:30.633Z,19.75
2023-05-12T14:45:57.714Z,19.70
2023-05-12T14:48:26.259Z,19.66
2023-05-12T14:50:53.659Z,19.61
2023-05-12T14:53:20.488Z,19.55
2023-05-12T14:55:48.615Z,19.48
2023-05-12T14:58:17.688Z,19.44
2023-05-12T15:00:44.987Z,19.43
2023-05-12T15:03:11.890Z,19.42
2023-05-12T15:05:56.891Z,19.40
2023-05-12T15:08:25.459Z,19.39
2023-05-12T15:10:52.153Z,19.38
2023-05-12T15:13:20.534Z,19.37
2023-05-12T15:15:47.482Z,19.39
2023-05-12T15:18:14.151Z,19.40
2023-05-12T15:20:40.907Z,19.40
2023-05-12T15:23:07.517Z,19.42
2023-05-12T15:25:34.255Z,19.42
2023-05-12T15:28:00.956Z,19.43
2023-05-12T15:30:27.889Z,19.43
2023-05-12T15:32:54.704Z,19.44
2023-05-12T15:35:21.761Z,19.45
2023-05-12T15:37:48.542Z,19.45
2023-05-12T15:40:15.330Z,19.47
2023-05-12T15:42:42.038Z,19.48
2023-05-12T15:45:09.725Z,19.47
2023-05-12T15:47:36.608Z,19.43
2023-05-12T15:50:04.177Z,19.42
2023-05-12T15:52:31.027Z,19.40
2023-05-12T15:54:57.648Z,19.40
2023-05-12T15:57:24.443Z,19.36
2023-05-12T15:59:56.806Z,19.33
2023-05-12T16:02:23.378Z,19.32
2023-05-12T16:04:50.966Z,19.31
2023-05-12T16:07:17.541Z,19.27
2023-05-12T16:09:44.161Z,19.23
2023-05-12T16:12:11.849Z,19.19
2023-05-12T16:14:38.712Z,19.16
2023-05-12T16:17:05.503Z,19.15
2023-05-12T16:19:32.115Z,19.16
2023-05-12T16:22:00.247Z,19.18
2023-05-12T16:24:28.745Z,19.15
2023-05-12T16:26:56.162Z,19.10
2023-05-12T16:29:22.728Z,19.03
2023-05-12T16:31:49.951Z,18.97
2023-05-12T16:34:18.122Z,18.91
2023-05-12T16:36:44.798Z,18.86
2023-05-12T16:39:11.461Z,18.82
2023-05-12T16:41:38.406Z,18.78
2023-05-12T16:44:05.486Z,18.74
2023-05-12T16:46:32.812Z,18.70
2023-05-12T16:49:00.024Z,18.68
2023-05-12T16:51:30.476Z,18.64
2023-05-12T16:53:57.678Z,18.60
2023-05-12T16:56:24.892Z,18.56
2023-05-12T16:58:51.565Z,18.51
2023-05-12T17:01:18.251Z,18.47
2023-05-12T17:03:44.950Z,18.43
2023-05-12T17:06:11.804Z,18.40
2023-05-12T17:08:38.573Z,18.36
2023-05-12T17:11:05.373Z,18.34
2023-05-12T17:13:35.709Z,18.29
2023-05-12T17:16:02.427Z,18.24
2023-05-12T17:18:29.274Z,18.17
2023-05-12T17:20:55.969Z,18.11
2023-05-12T17:23:22.622Z,18.05
2023-05-12T17:25:49.531Z,17.96
2023-05-12T17:28:16.185Z,17.85
2023-05-12T17:30:43.218Z,17.71
2023-05-12T17:33:10.512Z,17.59
2023-05-12T17:35:37.382Z,17.47
2023-05-12T17:38:04.080Z,17.37
2023-05-12T17:40:31.424Z,17.27
2023-05-12T17:42:58.010Z,17.13
2023-05-12T17:45:24.636Z,17.02
2023-05-12T17:47:51.332Z,16.96
2023-05-12T17:50:18.304Z,16.85
2023-05-12T17:52:44.980Z,16.75
2023-05-12T17:55:11.657Z,16.60
2023-05-12T17:57:38.577Z,16.48
2023-05-12T18:00:09.923Z,16.37
2023-05-12T18:02:43.786Z,16.27
2023-05-12T18:05:10.583Z,16.18
2023-05-12T18:07:37.164Z,16.06
2023-05-12T18:10:10.001Z,16.01
2023-05-12T18:12:37.711Z,15.97
2023-05-12T18:15:05.227Z,15.91
2023-05-12T18:17:32.649Z,15.84
2023-05-12T18:19:59.701Z,15.76
2023-05-12T18:22:26.561Z,15.72
2023-05-12T18:24:53.198Z,15.69
2023-05-12T18:27:19.853Z,15.64
2023-05-12T18:29:46.493Z,15.57
2023-05-12T18:32:13.083Z,15.51
2023-05-12T18:34:41.652Z,15.44
2023-05-12T18:37:08.610Z,15.40
2023-05-12T18:39:35.324Z,15.33
2023-05-12T18:42:02.362Z,15.28
2023-05-12T18:44:29.025Z,15.26
2023-05-12T18:46:55.709Z,15.23
2023-05-12T18:49:22.424Z,15.21
2023-05-12T18:51:49.015Z,15.19
2023-05-12T18:54:16.024Z,15.14
2023-05-12T18:56:42.697Z,15.04
2023-05-12T18:59:09.522Z,14.94
2023-05-12T19:01:36.421Z,14.90
2023-05-12T19:04:03.710Z,14.90
2023-05-12T19:06:30.972Z,14.86
2023-05-12T19:08:57.597Z,14.86
2023-05-12T19:11:24.822Z,14.82
2023-05-12T19:13:52.361Z,14.76
2023-05-12T19:16:19.272Z,14.71
2023-05-12T19:18:46.232Z,14.60
2023-05-12T19:21:13.046Z,14.52
2023-05-12T19:23:39.658Z,14.43
2023-05-12T19:26:07.214Z,14.32
2023-05-12T19:28:33.744Z,14.28
2023-05-12T19:31:00.451Z,14.30
2023-05-12T19:33:28.794Z,14.34
2023-05-12T19:35:56.046Z,14.40
2023-05-12T19:38:23.864Z,14.45
2023-05-12T19:40:50.569Z,14.50
2023-05-12T19:43:17.269Z,14.52
2023-05-12T19:45:43.899Z,14.52
2023-05-12T19:48:10.647Z,14.54
2023-05-12T19:50:37.351Z,14.56
2023-05-12T19:53:03.938Z,14.59
2023-05-12T19:55:30.646Z,14.62
2023-05-12T19:57:57.503Z,14.65
2023-05-12T20:00:26.627Z,14.66
2023-05-12T20:02:53.461Z,14.62
2023-05-12T20:05:20.518Z,14.58
2023-05-12T20:07:48.561Z,14.56
2023-05-12T20:10:15.390Z,14.51
2023-05-12T20:12:42.011Z,14.45
2023-05-12T20:15:09.444Z,14.42
2023-05-12T20:17:36.036Z,14.41
2023-05-12T20:20:04.190Z,14.37
2023-05-12T20:22:30.880Z,14.29
2023-05-12T20:25:04.103Z,14.18
2023-05-12T20:27:31.955Z,14.09
2023-05-12T20:29:58.726Z,14.02
2023-05-12T20:32:25.818Z,13.92
2023-05-12T20:34:52.751Z,13.82
2023-05-12T20:37:23.214Z,13.76
2023-05-12T20:39:49.961Z,13.67
2023-05-12T20:42:16.776Z,13.58
2023-05-12T20:44:43.572Z,13.50
2023-05-12T20:47:11.027Z,13.45
2023-05-12T20:49:37.810Z,13.37
2023-05-12T20:52:05.838Z,13.29
2023-05-12T20:54:32.579Z,13.20
2023-05-12T20:56:59.167Z,13.12
2023-05-12T20:59:25.833Z,13.04
2023-05-12T21:01:52.582Z,13.03
2023-05-12T21:04:19.306Z,12.96
2023-05-12T21:06:46.725Z,12.91
2023-05-12T21:09:13.472Z,12.81
2023-05-12T21:11:40.760Z,12.71
2023-05-12T21:14:07.335Z,12.67
2023-05-12T21:16:34.076Z,12.63
2023-05-12T21:19:00.796Z,12.58
2023-05-12T21:21:28.761Z,12.58
2023-05-12T21:23:55.431Z,12.63
2023-05-12T21:26:22.126Z,12.66
2023-05-12T21:28:48.849Z,12.55
2023-05-12T21:31:15.430Z,12.43
2023-05-12T21:33:42.014Z,12.39
2023-05-12T21:36:08.766Z,12.38
2023-05-12T21:38:35.998Z,12.41
2023-05-12T21:41:02.736Z,12.43
2023-05-12T21:43:29.631Z,12.35
2023-05-12T21:45:56.589Z,12.30
2023-05-12T21:48:23.330Z,12.30
2023-05-12T21:51:00.068Z,12.24
2023-05-12T21:53:27.223Z,12.25
2023-05-12T21:55:53.858Z,12.31
2023-05-12T21:58:20.955Z,12.38
2023-05-12T22:00:47.831Z,12.37
2023-05-12T22:03:14.479Z,12.29
2023-05-12T22:05:41.144Z,12.26
2023-05-12T22:08:07.758Z,12.30
2023-05-12T22:10:34.346Z,12.37
2023-05-12T22:13:00.941Z,12.40
2023-05-12T22:15:27.685Z,12.39
2023-05-12T22:17:54.292Z,12.33
2023-05-12T22:20:23.216Z,12.29
2023-05-12T22:22:50.165Z,12.24
2023-05-12T22:25:16.767Z,12.19
2023-05-12T22:27:43.398Z,12.18
2023-05-12T22:30:10.746Z,12.16
2023-05-12T22:32:37.415Z,12.13
2023-05-12T22:35:04.183Z,12.13
2023-05-12T22:37:30.846Z,12.13
2023-05-12T22:39:57.780Z,12.10
2023-05-12T22:42:24.570Z,12.04
2023-05-12T22:44:51.420Z,12.03
2023-05-12T22:47:18.130Z,12.04
2023-05-12T22:49:44.841Z,12.00
2023-05-12T22:52:11.496Z,11.96
2023-05-12T22:54:38.080Z,11.95
2023-05-12T22:57:04.793Z,11.94
2023-05-12T22:59:31.394Z,11.90
2023-05-12T23:01:58.021Z,11.86
2023-05-12T23:04:24.969Z,11.83
2023-05-12T23:06:51.741Z,11.79
2023-05-12T23:09:18.341Z,11.73
2023-05-12T23:11:44.925Z,11.66
2023-05-12T23:14:11.649Z,11.63
2023-05-12T23:16:38.347Z,11.63
2023-05-12T23:19:05.247Z,11.61
2023-05-12T23:21:32.907Z,11.54
2023-05-12T23:23:59.510Z,11.42
2023-05-12T23:26:26.239Z,11.37
2023-05-12T23:28:52.821Z,11.36
2023-05-12T23:31:19.434Z,11.34
2023-05-12T23:33:46.095Z,11.32
2023-05-12T23:36:13.653Z,11.30
2023-05-12T23:38:40.738Z,11.30
2023-05-12T23:41:07.718Z,11.30
2023-05-12T23:43:34.693Z,11.30
2023-05-12T23:46:01.505Z,11.27
2023-05-12T23:48:28.595Z,11.20
2023-05-12T23:50:55.268Z,11.12
2023-05-12T23:53:21.866Z,11.05
2023-05-12T23:55:48.459Z,10.99
2023-05-12T23:58:15.060Z,10.95
